FSIA/SEZ METAR and TAF weather

Enter ICAO airport designator
Station Type Date Time Source
FSIA METAR 2020/04/06 09:00 UTC NOAA

FSIA 060900Z 32012KT 300V040 9999 FEW018CB SCT020 31/25 Q1011 NOSIG


Station Type Date Time Source
FSIA Decoded METAR 2020/04/06 09:00 UTC NOAA

Seychelles Inter-National Airport, Seychelles (FSIA) 04-40S 055-31E 3M
Apr 06, 2020 - 05:00 AM EDT / 2020.04.06 0900 UTC
Wind: from the NW (320 degrees) at 14 MPH (12 KT) (direction variable):0
Visibility: greater than 7 mile(s):0
Sky conditions: partly cloudy
Weather: Cumulonimbus clouds observed
Temperature: 87 F (31 C)
Heat index: 97.5 F (36.4 C):1
Dew Point: 77 F (25 C)
Relative Humidity: 70%
Pressure (altimeter): 29.85 in. Hg (1011 hPa)
ob: FSIA 060900Z 32012KT 300V040 9999 FEW018CB SCT020 31/25 Q1011 NOSIG
cycle: 9

Station Type Date Time Source
FSIA TAF 2020/04/06 06:19 UTC NOAA

TAF FSIA 060500Z 0606/0706 28010KT 9999 FEW018CB SCT021 PROB40
TEMPO 0610/0614 -SHRA FEW016CB BKN020

Example: see airport list